sensor_id;sensor_type;location;lat;lon;timestamp;pressure;altitude;pressure_sealevel;temperature;humidity
3122;BME280;1571;52.524;14.104;2023-12-14T00:01:22;100136.59;;;4.31;100.00
3122;BME280;1571;52.524;14.104;2023-12-14T00:03:50;100136.78;;;3.68;100.00
3122;BME280;1571;52.524;14.104;2023-12-14T00:06:19;100136.34;;;3.59;100.00
3122;BME280;1571;52.524;14.104;2023-12-14T00:08:47;100138.31;;;3.53;100.00
3122;BME280;1571;52.524;14.104;2023-12-14T00:11:17;100149.06;;;3.68;100.00
3122;BME280;1571;52.524;14.104;2023-12-14T00:13:45;100150.69;;;3.70;100.00
3122;BME280;1571;52.524;14.104;2023-12-14T00:16:13;100149.53;;;3.57;100.00
3122;BME280;1571;52.524;14.104;2023-12-14T00:18:42;100154.91;;;3.54;100.00
3122;BME280;1571;52.524;14.104;2023-12-14T00:21:10;100157.78;;;3.27;100.00
3122;BME280;1571;52.524;14.104;2023-12-14T00:23:38;100160.03;;;3.15;100.00
3122;BME280;1571;52.524;14.104;2023-12-14T00:26:07;100163.88;;;3.06;100.00
3122;BME280;1571;52.524;14.104;2023-12-14T00:28:36;100168.66;;;3.18;100.00
3122;BME280;1571;52.524;14.104;2023-12-14T00:31:05;100181.06;;;3.35;100.00
3122;BME280;1571;52.524;14.104;2023-12-14T00:33:34;100179.75;;;3.25;100.00
3122;BME280;1571;52.524;14.104;2023-12-14T00:36:04;100183.34;;;3.65;100.00
3122;BME280;1571;52.524;14.104;2023-12-14T00:38:32;100178.22;;;3.19;100.00
3122;BME280;1571;52.524;14.104;2023-12-14T00:41:00;100184.16;;;3.02;100.00
3122;BME280;1571;52.524;14.104;2023-12-14T00:43:29;100200.78;;;3.01;100.00
3122;BME280;1571;52.524;14.104;2023-12-14T00:45:58;100198.06;;;3.04;100.00
3122;BME280;1571;52.524;14.104;2023-12-14T00:48:27;100205.47;;;3.15;100.00
3122;BME280;1571;52.524;14.104;2023-12-14T00:50:55;100204.88;;;3.08;100.00
3122;BME280;1571;52.524;14.104;2023-12-14T00:53:23;100210.00;;;3.33;100.00
3122;BME280;1571;52.524;14.104;2023-12-14T00:55:51;100205.00;;;3.27;100.00
3122;BME280;1571;52.524;14.104;2023-12-14T00:58:20;100211.38;;;3.42;100.00
3122;BME280;1571;52.524;14.104;2023-12-14T01:00:48;100204.13;;;3.90;100.00
3122;BME280;1571;52.524;14.104;2023-12-14T01:03:18;100192.06;;;3.65;100.00
3122;BME280;1571;52.524;14.104;2023-12-14T01:05:46;100191.47;;;3.79;100.00
3122;BME280;1571;52.524;14.104;2023-12-14T01:08:14;100188.31;;;3.71;100.00
3122;BME280;1571;52.524;14.104;2023-12-14T01:10:43;100188.03;;;3.77;100.00
3122;BME280;1571;52.524;14.104;2023-12-14T01:13:11;100177.09;;;3.67;100.00
3122;BME280;1571;52.524;14.104;2023-12-14T01:15:40;100184.19;;;3.65;100.00
3122;BME280;1571;52.524;14.104;2023-12-14T01:18:08;100174.28;;;3.72;100.00
3122;BME280;1571;52.524;14.104;2023-12-14T01:20:38;100183.59;;;3.16;100.00
3122;BME280;1571;52.524;14.104;2023-12-14T01:23:06;100189.50;;;2.99;100.00
3122;BME280;1571;52.524;14.104;2023-12-14T01:25:36;100205.00;;;3.05;100.00
3122;BME280;1571;52.524;14.104;2023-12-14T01:28:05;100211.03;;;3.07;100.00
3122;BME280;1571;52.524;14.104;2023-12-14T01:30:33;100205.38;;;2.96;100.00
3122;BME280;1571;52.524;14.104;2023-12-14T01:33:01;100226.13;;;3.02;100.00
3122;BME280;1571;52.524;14.104;2023-12-14T01:35:30;100238.38;;;3.02;100.00
3122;BME280;1571;52.524;14.104;2023-12-14T01:37:59;100238.44;;;3.00;100.00
3122;BME280;1571;52.524;14.104;2023-12-14T01:40:27;100245.72;;;2.92;100.00
3122;BME280;1571;52.524;14.104;2023-12-14T01:43:06;100250.88;;;2.95;100.00
3122;BME280;1571;52.524;14.104;2023-12-14T01:45:34;100257.63;;;3.01;100.00
3122;BME280;1571;52.524;14.104;2023-12-14T01:48:03;100253.19;;;3.03;100.00
3122;BME280;1571;52.524;14.104;2023-12-14T01:50:32;100263.38;;;2.88;100.00
3122;BME280;1571;52.524;14.104;2023-12-14T01:53:01;100265.00;;;2.91;100.00
3122;BME280;1571;52.524;14.104;2023-12-14T01:55:29;100268.88;;;3.04;100.00
3122;BME280;1571;52.524;14.104;2023-12-14T01:57:59;100263.63;;;2.81;100.00
3122;BME280;1571;52.524;14.104;2023-12-14T02:00:34;100274.53;;;2.94;100.00
3122;BME280;1571;52.524;14.104;2023-12-14T02:03:04;100273.06;;;2.86;100.00
3122;BME280;1571;52.524;14.104;2023-12-14T02:05:32;100284.09;;;2.95;100.00
3122;BME280;1571;52.524;14.104;2023-12-14T02:08:02;100281.78;;;2.87;100.00
3122;BME280;1571;52.524;14.104;2023-12-14T02:10:30;100285.06;;;2.92;100.00
3122;BME280;1571;52.524;14.104;2023-12-14T02:13:00;100285.16;;;2.90;100.00
3122;BME280;1571;52.524;14.104;2023-12-14T02:15:29;100293.06;;;2.89;100.00
3122;BME280;1571;52.524;14.104;2023-12-14T02:17:57;100302.63;;;2.90;100.00
3122;BME280;1571;52.524;14.104;2023-12-14T02:20:25;100306.84;;;2.94;100.00
3122;BME280;1571;52.524;14.104;2023-12-14T02:22:55;100306.00;;;2.94;100.00
3122;BME280;1571;52.524;14.104;2023-12-14T02:25:24;100299.66;;;2.76;100.00
3122;BME280;1571;52.524;14.104;2023-12-14T02:27:52;100299.91;;;2.93;100.00
3122;BME280;1571;52.524;14.104;2023-12-14T02:30:21;100302.75;;;2.87;100.00
3122;BME280;1571;52.524;14.104;2023-12-14T02:32:49;100300.69;;;2.71;100.00
3122;BME280;1571;52.524;14.104;2023-12-14T02:35:17;100297.44;;;2.65;100.00
3122;BME280;1571;52.524;14.104;2023-12-14T02:37:46;100306.38;;;2.83;100.00
3122;BME280;1571;52.524;14.104;2023-12-14T02:40:16;100305.50;;;2.84;100.00
3122;BME280;1571;52.524;14.104;2023-12-14T02:42:44;100310.38;;;2.93;100.00
3122;BME280;1571;52.524;14.104;2023-12-14T02:45:12;100299.28;;;2.86;100.00
3122;BME280;1571;52.524;14.104;2023-12-14T02:47:41;100305.16;;;2.93;100.00
3122;BME280;1571;52.524;14.104;2023-12-14T02:50:09;100303.19;;;2.75;100.00
3122;BME280;1571;52.524;14.104;2023-12-14T02:52:37;100309.97;;;2.80;100.00
3122;BME280;1571;52.524;14.104;2023-12-14T02:55:06;100302.16;;;2.79;100.00
3122;BME280;1571;52.524;14.104;2023-12-14T02:57:36;100321.22;;;2.84;100.00
3122;BME280;1571;52.524;14.104;2023-12-14T03:00:05;100315.41;;;2.76;100.00
3122;BME280;1571;52.524;14.104;2023-12-14T03:02:34;100321.31;;;2.81;100.00
3122;BME280;1571;52.524;14.104;2023-12-14T03:05:03;100329.00;;;2.62;100.00
3122;BME280;1571;52.524;14.104;2023-12-14T03:07:33;100328.38;;;2.79;100.00
3122;BME280;1571;52.524;14.104;2023-12-14T03:10:02;100322.41;;;2.75;100.00
3122;BME280;1571;52.524;14.104;2023-12-14T03:12:30;100331.25;;;2.73;100.00
3122;BME280;1571;52.524;14.104;2023-12-14T03:15:00;100334.44;;;2.81;100.00
3122;BME280;1571;52.524;14.104;2023-12-14T03:17:29;100333.75;;;2.76;100.00
3122;BME280;1571;52.524;14.104;2023-12-14T03:19:57;100340.06;;;2.70;100.00
3122;BME280;1571;52.524;14.104;2023-12-14T03:22:25;100341.63;;;2.76;100.00
3122;BME280;1571;52.524;14.104;2023-12-14T03:24:54;100355.94;;;2.90;100.00
3122;BME280;1571;52.524;14.104;2023-12-14T03:27:22;100361.66;;;2.77;100.00
3122;BME280;1571;52.524;14.104;2023-12-14T03:29:51;100353.47;;;3.09;100.00
3122;BME280;1571;52.524;14.104;2023-12-14T03:32:21;100349.91;;;3.10;100.00
3122;BME280;1571;52.524;14.104;2023-12-14T03:34:49;100354.38;;;2.85;100.00
3122;BME280;1571;52.524;14.104;2023-12-14T03:37:17;100354.84;;;2.96;100.00
3122;BME280;1571;52.524;14.104;2023-12-14T03:39:46;100354.69;;;2.77;100.00
3122;BME280;1571;52.524;14.104;2023-12-14T03:42:14;100363.38;;;2.78;100.00
3122;BME280;1571;52.524;14.104;2023-12-14T03:44:42;100365.78;;;2.84;100.00
3122;BME280;1571;52.524;14.104;2023-12-14T03:47:10;100370.66;;;2.69;100.00
3122;BME280;1571;52.524;14.104;2023-12-14T03:49:40;100373.13;;;2.74;100.00
3122;BME280;1571;52.524;14.104;2023-12-14T03:52:08;100379.44;;;2.68;100.00
3122;BME280;1571;52.524;14.104;2023-12-14T03:54:37;100381.44;;;2.85;100.00
3122;BME280;1571;52.524;14.104;2023-12-14T03:57:05;100390.63;;;2.74;100.00
3122;BME280;1571;52.524;14.104;2023-12-14T03:59:34;100383.69;;;2.73;100.00
3122;BME280;1571;52.524;14.104;2023-12-14T04:02:02;100388.00;;;2.74;100.00
3122;BME280;1571;52.524;14.104;2023-12-14T04:04:30;100394.63;;;2.84;100.00
3122;BME280;1571;52.524;14.104;2023-12-14T04:07:00;100397.31;;;2.57;100.00
3122;BME280;1571;52.524;14.104;2023-12-14T04:09:28;100408.94;;;2.50;100.00
3122;BME280;1571;52.524;14.104;2023-12-14T04:11:56;100406.94;;;3.05;100.00
3122;BME280;1571;52.524;14.104;2023-12-14T04:14:25;100409.31;;;2.88;100.00
3122;BME280;1571;52.524;14.104;2023-12-14T04:16:54;100412.44;;;2.74;100.00
3122;BME280;1571;52.524;14.104;2023-12-14T04:19:21;100408.38;;;2.65;100.00
3122;BME280;1571;52.524;14.104;2023-12-14T04:21:49;100427.09;;;2.80;100.00
3122;BME280;1571;52.524;14.104;2023-12-14T04:24:19;100432.28;;;2.81;100.00
3122;BME280;1571;52.524;14.104;2023-12-14T04:26:49;100427.78;;;2.85;100.00
3122;BME280;1571;52.524;14.104;2023-12-14T04:29:17;100420.94;;;2.81;100.00
3122;BME280;1571;52.524;14.104;2023-12-14T04:31:45;100417.50;;;2.79;100.00
3122;BME280;1571;52.524;14.104;2023-12-14T04:34:14;100418.56;;;2.98;100.00
3122;BME280;1571;52.524;14.104;2023-12-14T04:36:44;100430.97;;;3.18;100.00
3122;BME280;1571;52.524;14.104;2023-12-14T04:39:13;100419.72;;;3.15;100.00
3122;BME280;1571;52.524;14.104;2023-12-14T04:41:42;100418.34;;;3.28;100.00
3122;BME280;1571;52.524;14.104;2023-12-14T04:44:11;100422.94;;;3.23;100.00
3122;BME280;1571;52.524;14.104;2023-12-14T04:46:39;100426.41;;;3.23;100.00
3122;BME280;1571;52.524;14.104;2023-12-14T04:49:07;100428.47;;;2.90;100.00
3122;BME280;1571;52.524;14.104;2023-12-14T04:51:36;100439.56;;;2.98;100.00
3122;BME280;1571;52.524;14.104;2023-12-14T04:54:04;100433.28;;;3.02;100.00
3122;BME280;1571;52.524;14.104;2023-12-14T04:56:32;100441.91;;;2.81;100.00
3122;BME280;1571;52.524;14.104;2023-12-14T04:59:02;100439.69;;;2.95;100.00
3122;BME280;1571;52.524;14.104;2023-12-14T05:01:30;100451.75;;;2.99;100.00
3122;BME280;1571;52.524;14.104;2023-12-14T05:04:01;100466.06;;;2.90;100.00
3122;BME280;1571;52.524;14.104;2023-12-14T05:06:29;100463.97;;;2.75;100.00
3122;BME280;1571;52.524;14.104;2023-12-14T05:09:00;100468.63;;;2.92;100.00
3122;BME280;1571;52.524;14.104;2023-12-14T05:11:32;100475.81;;;3.10;100.00
3122;BME280;1571;52.524;14.104;2023-12-14T05:14:01;100478.81;;;2.75;100.00
3122;BME280;1571;52.524;14.104;2023-12-14T05:16:30;100477.44;;;2.89;100.00
3122;BME280;1571;52.524;14.104;2023-12-14T05:18:58;100483.63;;;2.88;100.00
3122;BME280;1571;52.524;14.104;2023-12-14T05:21:27;100483.44;;;2.93;100.00
3122;BME280;1571;52.524;14.104;2023-12-14T05:23:55;100479.19;;;2.90;100.00
3122;BME280;1571;52.524;14.104;2023-12-14T05:26:24;100478.63;;;2.81;100.00
3122;BME280;1571;52.524;14.104;2023-12-14T05:28:52;100496.25;;;2.77;100.00
3122;BME280;1571;52.524;14.104;2023-12-14T05:31:22;100497.97;;;2.77;100.00
3122;BME280;1571;52.524;14.104;2023-12-14T05:33:50;100501.31;;;2.82;100.00
3122;BME280;1571;52.524;14.104;2023-12-14T05:36:19;100501.09;;;2.88;100.00
3122;BME280;1571;52.524;14.104;2023-12-14T05:38:48;100509.91;;;2.85;100.00
3122;BME280;1571;52.524;14.104;2023-12-14T05:41:16;100514.03;;;2.92;100.00
3122;BME280;1571;52.524;14.104;2023-12-14T05:43:44;100522.72;;;2.95;100.00
3122;BME280;1571;52.524;14.104;2023-12-14T05:46:21;100526.13;;;2.97;100.00
3122;BME280;1571;52.524;14.104;2023-12-14T05:48:50;100525.44;;;2.91;100.00
3122;BME280;1571;52.524;14.104;2023-12-14T05:51:29;100534.38;;;2.86;100.00
3122;BME280;1571;52.524;14.104;2023-12-14T05:53:58;100543.75;;;2.93;100.00
3122;BME280;1571;52.524;14.104;2023-12-14T05:56:26;100549.81;;;2.95;100.00
3122;BME280;1571;52.524;14.104;2023-12-14T05:58:55;100551.72;;;3.15;100.00
3122;BME280;1571;52.524;14.104;2023-12-14T06:01:24;100547.84;;;3.02;100.00
3122;BME280;1571;52.524;14.104;2023-12-14T06:03:53;100547.56;;;3.09;100.00
3122;BME280;1571;52.524;14.104;2023-12-14T06:06:21;100558.88;;;3.11;100.00
3122;BME280;1571;52.524;14.104;2023-12-14T06:08:50;100559.25;;;2.99;100.00
3122;BME280;1571;52.524;14.104;2023-12-14T06:11:19;100557.41;;;3.03;100.00
3122;BME280;1571;52.524;14.104;2023-12-14T06:13:47;100562.97;;;3.19;100.00
3122;BME280;1571;52.524;14.104;2023-12-14T06:16:16;100560.03;;;3.03;100.00
3122;BME280;1571;52.524;14.104;2023-12-14T06:18:45;100571.13;;;3.11;100.00
3122;BME280;1571;52.524;14.104;2023-12-14T06:21:14;100574.00;;;3.03;100.00
3122;BME280;1571;52.524;14.104;2023-12-14T06:23:42;100570.88;;;2.92;100.00
3122;BME280;1571;52.524;14.104;2023-12-14T06:26:10;100582.47;;;3.11;100.00
3122;BME280;1571;52.524;14.104;2023-12-14T06:28:38;100580.38;;;2.96;100.00
3122;BME280;1571;52.524;14.104;2023-12-14T06:31:12;100577.75;;;2.96;100.00
3122;BME280;1571;52.524;14.104;2023-12-14T06:33:40;100579.00;;;3.36;100.00
3122;BME280;1571;52.524;14.104;2023-12-14T06:36:10;100577.75;;;2.96;100.00
3122;BME280;1571;52.524;14.104;2023-12-14T06:38:39;100579.44;;;2.97;100.00
3122;BME280;1571;52.524;14.104;2023-12-14T06:41:07;100586.22;;;3.04;100.00
3122;BME280;1571;52.524;14.104;2023-12-14T06:43:36;100585.34;;;3.04;100.00
3122;BME280;1571;52.524;14.104;2023-12-14T06:46:04;100601.47;;;2.93;100.00
3122;BME280;1571;52.524;14.104;2023-12-14T06:48:33;100592.88;;;2.88;100.00
3122;BME280;1571;52.524;14.104;2023-12-14T06:51:01;100610.91;;;2.97;100.00
3122;BME280;1571;52.524;14.104;2023-12-14T06:53:31;100600.22;;;3.03;100.00
3122;BME280;1571;52.524;14.104;2023-12-14T06:55:59;100606.09;;;3.11;100.00
3122;BME280;1571;52.524;14.104;2023-12-14T06:58:27;100614.56;;;2.93;100.00
3122;BME280;1571;52.524;14.104;2023-12-14T07:00:56;100614.66;;;2.90;100.00
3122;BME280;1571;52.524;14.104;2023-12-14T07:03:24;100605.09;;;2.89;100.00
3122;BME280;1571;52.524;14.104;2023-12-14T07:05:52;100622.78;;;2.82;100.00
3122;BME280;1571;52.524;14.104;2023-12-14T07:08:20;100631.88;;;2.97;100.00
3122;BME280;1571;52.524;14.104;2023-12-14T07:10:50;100631.53;;;2.81;100.00
3122;BME280;1571;52.524;14.104;2023-12-14T07:13:19;100637.22;;;2.96;100.00
3122;BME280;1571;52.524;14.104;2023-12-14T07:15:48;100645.94;;;2.96;100.00
3122;BME280;1571;52.524;14.104;2023-12-14T07:18:16;100651.50;;;2.85;100.00
3122;BME280;1571;52.524;14.104;2023-12-14T07:20:44;100655.50;;;2.70;100.00
3122;BME280;1571;52.524;14.104;2023-12-14T07:23:12;100663.09;;;2.78;100.00
3122;BME280;1571;52.524;14.104;2023-12-14T07:25:41;100669.47;;;2.69;100.00
3122;BME280;1571;52.524;14.104;2023-12-14T07:28:10;100682.91;;;2.88;100.00
3122;BME280;1571;52.524;14.104;2023-12-14T07:30:38;100691.13;;;2.76;100.00
3122;BME280;1571;52.524;14.104;2023-12-14T07:33:07;100688.13;;;2.60;100.00
3122;BME280;1571;52.524;14.104;2023-12-14T07:35:35;100694.00;;;2.68;100.00
3122;BME280;1571;52.524;14.104;2023-12-14T07:38:04;100707.94;;;2.97;100.00
3122;BME280;1571;52.524;14.104;2023-12-14T07:40:34;100707.09;;;3.25;100.00
3122;BME280;1571;52.524;14.104;2023-12-14T07:43:03;100703.34;;;2.77;100.00
3122;BME280;1571;52.524;14.104;2023-12-14T07:45:32;100709.63;;;2.71;100.00
3122;BME280;1571;52.524;14.104;2023-12-14T07:48:01;100716.31;;;2.82;100.00
3122;BME280;1571;52.524;14.104;2023-12-14T07:50:30;100723.81;;;2.64;100.00
3122;BME280;1571;52.524;14.104;2023-12-14T07:52:58;100724.13;;;2.83;100.00
3122;BME280;1571;52.524;14.104;2023-12-14T07:55:27;100726.69;;;2.85;100.00
3122;BME280;1571;52.524;14.104;2023-12-14T07:57:56;100732.03;;;2.52;100.00
3122;BME280;1571;52.524;14.104;2023-12-14T08:00:24;100752.22;;;2.50;100.00
3122;BME280;1571;52.524;14.104;2023-12-14T08:02:54;100754.78;;;2.52;100.00
3122;BME280;1571;52.524;14.104;2023-12-14T08:05:22;100753.81;;;2.54;100.00
3122;BME280;1571;52.524;14.104;2023-12-14T08:07:50;100751.13;;;2.87;100.00
3122;BME280;1571;52.524;14.104;2023-12-14T08:10:19;100760.19;;;2.45;100.00
3122;BME280;1571;52.524;14.104;2023-12-14T08:12:47;100774.31;;;2.40;100.00
3122;BME280;1571;52.524;14.104;2023-12-14T08:15:16;100771.03;;;2.32;100.00
3122;BME280;1571;52.524;14.104;2023-12-14T08:17:44;100778.84;;;2.35;100.00
3122;BME280;1571;52.524;14.104;2023-12-14T08:20:14;100785.66;;;2.40;100.00
3122;BME280;1571;52.524;14.104;2023-12-14T08:22:42;100793.03;;;2.27;100.00
3122;BME280;1571;52.524;14.104;2023-12-14T08:25:13;100793.94;;;2.86;100.00
3122;BME280;1571;52.524;14.104;2023-12-14T08:27:42;100805.63;;;2.76;100.00
3122;BME280;1571;52.524;14.104;2023-12-14T08:30:12;100802.91;;;2.79;100.00
3122;BME280;1571;52.524;14.104;2023-12-14T08:32:41;100804.69;;;2.47;100.00
3122;BME280;1571;52.524;14.104;2023-12-14T08:35:10;100801.34;;;2.73;100.00
3122;BME280;1571;52.524;14.104;2023-12-14T08:37:40;100800.13;;;2.85;100.00
3122;BME280;1571;52.524;14.104;2023-12-14T08:40:09;100803.09;;;3.02;100.00
3122;BME280;1571;52.524;14.104;2023-12-14T08:42:37;100806.13;;;2.88;100.00
3122;BME280;1571;52.524;14.104;2023-12-14T08:45:07;100807.34;;;2.77;100.00
3122;BME280;1571;52.524;14.104;2023-12-14T08:47:37;100813.13;;;2.88;100.00
3122;BME280;1571;52.524;14.104;2023-12-14T08:50:07;100809.97;;;2.77;100.00
3122;BME280;1571;52.524;14.104;2023-12-14T08:52:36;100821.53;;;2.99;100.00
3122;BME280;1571;52.524;14.104;2023-12-14T08:55:07;100812.97;;;2.63;100.00
3122;BME280;1571;52.524;14.104;2023-12-14T08:57:35;100820.09;;;2.59;100.00
3122;BME280;1571;52.524;14.104;2023-12-14T09:00:05;100832.53;;;2.82;100.00
3122;BME280;1571;52.524;14.104;2023-12-14T09:02:35;100833.13;;;2.92;100.00
3122;BME280;1571;52.524;14.104;2023-12-14T09:05:04;100837.91;;;2.78;100.00
3122;BME280;1571;52.524;14.104;2023-12-14T09:07:33;100849.38;;;2.74;100.00
3122;BME280;1571;52.524;14.104;2023-12-14T09:10:01;100851.94;;;3.06;100.00
3122;BME280;1571;52.524;14.104;2023-12-14T09:12:31;100853.00;;;2.69;100.00
3122;BME280;1571;52.524;14.104;2023-12-14T09:15:00;100858.31;;;2.66;100.00
3122;BME280;1571;52.524;14.104;2023-12-14T09:17:28;100855.22;;;2.83;100.00
3122;BME280;1571;52.524;14.104;2023-12-14T09:20:05;100859.59;;;2.83;100.00
3122;BME280;1571;52.524;14.104;2023-12-14T09:22:33;100854.59;;;2.75;100.00
3122;BME280;1571;52.524;14.104;2023-12-14T09:25:02;100857.63;;;2.91;100.00
3122;BME280;1571;52.524;14.104;2023-12-14T09:27:32;100861.78;;;2.68;100.00
3122;BME280;1571;52.524;14.104;2023-12-14T09:30:01;100873.44;;;2.57;100.00
3122;BME280;1571;52.524;14.104;2023-12-14T09:32:29;100871.41;;;2.68;100.00
3122;BME280;1571;52.524;14.104;2023-12-14T09:34:57;100864.38;;;2.68;100.00
3122;BME280;1571;52.524;14.104;2023-12-14T09:37:26;100877.75;;;2.59;100.00
3122;BME280;1571;52.524;14.104;2023-12-14T09:39:55;100882.56;;;2.42;100.00
3122;BME280;1571;52.524;14.104;2023-12-14T09:42:23;100881.41;;;2.52;100.00
3122;BME280;1571;52.524;14.104;2023-12-14T09:44:54;100889.25;;;2.54;100.00
3122;BME280;1571;52.524;14.104;2023-12-14T09:47:23;100895.19;;;2.60;100.00
3122;BME280;1571;52.524;14.104;2023-12-14T09:49:52;100899.53;;;2.61;100.00
3122;BME280;1571;52.524;14.104;2023-12-14T09:52:20;100896.81;;;2.64;100.00
3122;BME280;1571;52.524;14.104;2023-12-14T09:54:48;100898.50;;;2.67;100.00
3122;BME280;1571;52.524;14.104;2023-12-14T09:57:21;100903.97;;;2.59;100.00
3122;BME280;1571;52.524;14.104;2023-12-14T09:59:54;100906.75;;;2.53;100.00
3122;BME280;1571;52.524;14.104;2023-12-14T10:02:25;100904.69;;;2.64;100.00
3122;BME280;1571;52.524;14.104;2023-12-14T10:04:53;100892.59;;;2.59;100.00
3122;BME280;1571;52.524;14.104;2023-12-14T10:07:22;100900.06;;;2.41;100.00
3122;BME280;1571;52.524;14.104;2023-12-14T10:09:50;100899.84;;;2.49;100.00
3122;BME280;1571;52.524;14.104;2023-12-14T10:12:20;100908.56;;;2.49;100.00
3122;BME280;1571;52.524;14.104;2023-12-14T10:15:01;100911.06;;;2.54;100.00
3122;BME280;1571;52.524;14.104;2023-12-14T10:17:29;100922.69;;;2.77;100.00
3122;BME280;1571;52.524;14.104;2023-12-14T10:20:00;100915.22;;;2.63;100.00
3122;BME280;1571;52.524;14.104;2023-12-14T10:22:31;100921.50;;;2.57;100.00
3122;BME280;1571;52.524;14.104;2023-12-14T10:25:00;100923.53;;;2.46;100.00
3122;BME280;1571;52.524;14.104;2023-12-14T10:27:30;100931.63;;;2.69;100.00
3122;BME280;1571;52.524;14.104;2023-12-14T10:30:04;100941.28;;;3.00;100.00
3122;BME280;1571;52.524;14.104;2023-12-14T10:32:33;100925.72;;;2.94;100.00
3122;BME280;1571;52.524;14.104;2023-12-14T10:35:03;100922.38;;;2.89;100.00
3122;BME280;1571;52.524;14.104;2023-12-14T10:37:32;100919.19;;;2.78;100.00
3122;BME280;1571;52.524;14.104;2023-12-14T10:40:06;100924.19;;;2.87;100.00
3122;BME280;1571;52.524;14.104;2023-12-14T10:42:35;100922.97;;;2.99;100.00
3122;BME280;1571;52.524;14.104;2023-12-14T10:45:06;100915.31;;;2.91;100.00
3122;BME280;1571;52.524;14.104;2023-12-14T10:47:46;100925.69;;;2.96;100.00
3122;BME280;1571;52.524;14.104;2023-12-14T10:50:16;100925.47;;;3.03;100.00
3122;BME280;1571;52.524;14.104;2023-12-14T10:52:47;100940.16;;;2.78;100.00
3122;BME280;1571;52.524;14.104;2023-12-14T10:55:21;100938.53;;;2.74;100.00
3122;BME280;1571;52.524;14.104;2023-12-14T10:57:51;100936.56;;;2.82;100.00
3122;BME280;1571;52.524;14.104;2023-12-14T11:00:21;100943.13;;;2.97;100.00
3122;BME280;1571;52.524;14.104;2023-12-14T11:02:50;100941.28;;;3.00;100.00
3122;BME280;1571;52.524;14.104;2023-12-14T11:05:22;100942.03;;;3.05;100.00
3122;BME280;1571;52.524;14.104;2023-12-14T11:08:00;100932.19;;;3.13;100.00
3122;BME280;1571;52.524;14.104;2023-12-14T11:10:37;100936.72;;;3.38;100.00
3122;BME280;1571;52.524;14.104;2023-12-14T11:13:06;100937.47;;;3.12;100.00
3122;BME280;1571;52.524;14.104;2023-12-14T11:15:39;100942.03;;;3.05;100.00
3122;BME280;1571;52.524;14.104;2023-12-14T11:18:24;100940.63;;;2.92;100.00
3122;BME280;1571;52.524;14.104;2023-12-14T11:20:55;100950.56;;;3.43;100.00
3122;BME280;1571;52.524;14.104;2023-12-14T11:23:29;100949.38;;;3.24;100.00
3122;BME280;1571;52.524;14.104;2023-12-14T11:26:00;100950.44;;;3.46;100.00
3122;BME280;1571;52.524;14.104;2023-12-14T11:28:31;100945.31;;;3.43;100.00
3122;BME280;1571;52.524;14.104;2023-12-14T11:31:02;100944.53;;;3.08;100.00
3122;BME280;1571;52.524;14.104;2023-12-14T11:33:34;100960.47;;;3.02;100.00
3122;BME280;1571;52.524;14.104;2023-12-14T11:36:11;100956.78;;;3.09;100.00
3122;BME280;1571;52.524;14.104;2023-12-14T11:38:40;100954.56;;;2.94;100.00
3122;BME280;1571;52.524;14.104;2023-12-14T11:41:08;100960.53;;;2.99;100.00
3122;BME280;1571;52.524;14.104;2023-12-14T11:43:40;100956.66;;;3.14;100.00
3122;BME280;1571;52.524;14.104;2023-12-14T11:46:11;100960.47;;;3.02;100.00
3122;BME280;1571;52.524;14.104;2023-12-14T11:48:39;100966.44;;;3.07;100.00
3122;BME280;1571;52.524;14.104;2023-12-14T11:51:09;100966.66;;;3.00;100.00
3122;BME280;1571;52.524;14.104;2023-12-14T11:53:38;100974.47;;;3.01;100.00
3122;BME280;1571;52.524;14.104;2023-12-14T11:56:07;100965.72;;;3.02;100.00
3122;BME280;1571;52.524;14.104;2023-12-14T11:58:36;100968.34;;;3.02;100.00
3122;BME280;1571;52.524;14.104;2023-12-14T12:01:13;100981.47;;;3.02;100.00
3122;BME280;1571;52.524;14.104;2023-12-14T12:03:41;100995.16;;;3.13;100.00
3122;BME280;1571;52.524;14.104;2023-12-14T12:06:20;100985.72;;;3.06;100.00
3122;BME280;1571;52.524;14.104;2023-12-14T12:08:50;100986.16;;;2.89;100.00
3122;BME280;1571;52.524;14.104;2023-12-14T12:11:20;100998.78;;;3.08;100.00
3122;BME280;1571;52.524;14.104;2023-12-14T12:13:50;100994.94;;;2.88;100.00
3122;BME280;1571;52.524;14.104;2023-12-14T12:16:20;100991.41;;;2.89;100.00
3122;BME280;1571;52.524;14.104;2023-12-14T12:18:49;100992.09;;;2.96;100.00
3122;BME280;1571;52.524;14.104;2023-12-14T12:21:18;100999.97;;;2.96;100.00
3122;BME280;1571;52.524;14.104;2023-12-14T12:23:47;100996.53;;;2.94;100.00
3122;BME280;1571;52.524;14.104;2023-12-14T12:26:15;101005.00;;;3.04;100.00
3122;BME280;1571;52.524;14.104;2023-12-14T12:28:43;101004.16;;;3.03;100.00
3122;BME280;1571;52.524;14.104;2023-12-14T12:31:15;101020.88;;;3.32;100.00
3122;BME280;1571;52.524;14.104;2023-12-14T12:33:45;101021.41;;;3.12;100.00
3122;BME280;1571;52.524;14.104;2023-12-14T12:36:14;101022.75;;;3.27;100.00
3122;BME280;1571;52.524;14.104;2023-12-14T12:38:42;101019.94;;;3.33;100.00
3122;BME280;1571;52.524;14.104;2023-12-14T12:41:11;101019.38;;;2.90;100.00
3122;BME280;1571;52.524;14.104;2023-12-14T12:43:41;101022.22;;;3.14;100.00
3122;BME280;1571;52.524;14.104;2023-12-14T12:46:11;101020.69;;;3.07;100.00
3122;BME280;1571;52.524;14.104;2023-12-14T12:48:39;101040.31;;;3.25;100.00
3122;BME280;1571;52.524;14.104;2023-12-14T12:51:09;101034.91;;;2.98;100.00
3122;BME280;1571;52.524;14.104;2023-12-14T12:53:37;101037.44;;;3.01;100.00
3122;BME280;1571;52.524;14.104;2023-12-14T12:56:06;101044.91;;;2.84;100.00
3122;BME280;1571;52.524;14.104;2023-12-14T12:58:35;101049.72;;;2.99;100.00
3122;BME280;1571;52.524;14.104;2023-12-14T13:01:03;101057.88;;;3.21;100.00
3122;BME280;1571;52.524;14.104;2023-12-14T13:03:31;101058.69;;;3.25;100.00
3122;BME280;1571;52.524;14.104;2023-12-14T13:05:59;101064.81;;;2.91;100.00
3122;BME280;1571;52.524;14.104;2023-12-14T13:08:29;101069.47;;;3.12;100.00
3122;BME280;1571;52.524;14.104;2023-12-14T13:10:58;101081.03;;;3.05;100.00